Weather at Denver International Airport

Public forecast

Using degrees Fahrenheit for public forecast. Weather courtesy of forecast.io.

Current aviation weather report (METAR) for Denver International Airport

Retrieved 2021/10/19 19:53 UTC (12 minutes ago):

KDEN 191953Z 01020G26KT 10SM FEW045 BKN080 BKN110 14/01 A2989 RMK AO2 PK WND 36028/1910 SLP078 T01440006

Aviation forecast (TAF) for Denver International Airport

Retrieved 2021/10/19 18:36 UTC (1 hour ago):

TAF KDEN 191734Z 1918/2024 35015G25KT P6SM VCSH SCT080 BKN100 FM192100 01015G25KT P6SM VCSH SCT060 BKN100 FM200100 03009KT P6SM SCT100 SCT150 FM200800 20006KT P6SM FEW100 FM201500 VRB06KT P6SM FEW100 FM201900 06006KT P6SM FEW100